createdAt,value
2022-08-03T00:01:05.630Z,15.95
2022-08-03T00:03:38.113Z,15.92
2022-08-03T00:06:10.708Z,15.89
2022-08-03T00:08:43.292Z,15.86
2022-08-03T00:11:15.773Z,15.84
2022-08-03T00:13:48.381Z,15.82
2022-08-03T00:16:24.035Z,15.84
2022-08-03T00:19:00.627Z,15.84
2022-08-03T00:21:33.019Z,15.84
2022-08-03T00:24:07.115Z,15.84
2022-08-03T00:26:40.009Z,15.84
2022-08-03T00:29:14.191Z,15.85
2022-08-03T00:31:59.175Z,15.86
2022-08-03T00:34:57.981Z,15.86
2022-08-03T00:37:41.417Z,15.82
2022-08-03T00:40:16.994Z,15.76
2022-08-03T00:42:54.808Z,15.70
2022-08-03T00:45:29.182Z,15.65
2022-08-03T00:48:01.965Z,15.63
2022-08-03T00:50:38.197Z,15.61
2022-08-03T00:53:12.196Z,15.58
2022-08-03T00:55:45.588Z,15.57
2022-08-03T00:58:18.271Z,15.57
2022-08-03T01:00:51.167Z,15.55
2022-08-03T01:03:23.938Z,15.55
2022-08-03T01:06:06.816Z,15.53
2022-08-03T01:08:48.611Z,15.48
2022-08-03T01:11:30.757Z,15.42
2022-08-03T01:14:19.029Z,15.37
2022-08-03T01:16:58.292Z,15.32
2022-08-03T01:19:46.543Z,15.28
2022-08-03T01:22:39.009Z,15.23
2022-08-03T01:25:18.345Z,15.19
2022-08-03T01:28:04.072Z,15.17
2022-08-03T01:30:39.874Z,15.16
2022-08-03T01:33:18.983Z,15.12
2022-08-03T01:35:57.961Z,15.06
2022-08-03T01:38:35.493Z,15.00
2022-08-03T01:41:12.067Z,14.95
2022-08-03T01:44:28.057Z,14.90
2022-08-03T01:46:47.736Z,14.86
2022-08-03T01:49:21.929Z,14.85
2022-08-03T01:52:03.231Z,14.86
2022-08-03T01:54:41.712Z,14.85
2022-08-03T01:57:14.934Z,14.82
2022-08-03T01:59:50.986Z,14.78
2022-08-03T02:02:34.046Z,14.75
2022-08-03T02:05:10.638Z,14.72
2022-08-03T02:07:46.344Z,14.69
2022-08-03T02:10:34.974Z,14.67
2022-08-03T02:13:11.984Z,14.63
2022-08-03T02:15:45.914Z,14.58
2022-08-03T02:18:22.815Z,14.54
2022-08-03T02:20:55.990Z,14.50
2022-08-03T02:23:28.413Z,14.48
2022-08-03T02:26:06.168Z,14.46
2022-08-03T02:28:42.321Z,14.44
2022-08-03T02:31:20.691Z,14.44
2022-08-03T02:33:57.392Z,14.46
2022-08-03T02:36:33.235Z,14.43
2022-08-03T02:39:07.538Z,14.41
2022-08-03T02:41:43.517Z,14.39
2022-08-03T02:44:18.629Z,14.39
2022-08-03T02:46:56.178Z,14.41
2022-08-03T02:49:40.790Z,14.43
2022-08-03T02:52:24.569Z,14.43
2022-08-03T02:55:01.783Z,14.42
2022-08-03T02:57:37.171Z,14.40
2022-08-03T03:00:11.836Z,14.40
2022-08-03T03:03:39.984Z,14.38
2022-08-03T03:06:39.447Z,14.35
2022-08-03T03:09:12.534Z,14.36
2022-08-03T03:11:45.422Z,14.32
2022-08-03T03:14:18.940Z,14.30
2022-08-03T03:17:07.761Z,14.27
2022-08-03T03:19:45.430Z,14.26
2022-08-03T03:22:18.970Z,14.27
2022-08-03T03:24:52.424Z,14.26
2022-08-03T03:27:25.271Z,14.26
2022-08-03T03:30:00.351Z,14.24
2022-08-03T03:32:33.347Z,14.25
2022-08-03T03:35:08.330Z,14.27
2022-08-03T03:37:40.506Z,14.27
2022-08-03T03:40:15.118Z,14.29
2022-08-03T03:42:47.702Z,14.34
2022-08-03T03:45:21.913Z,14.37
2022-08-03T03:47:54.281Z,14.40
2022-08-03T03:50:27.490Z,14.39
2022-08-03T03:52:59.812Z,14.38
2022-08-03T03:55:32.337Z,14.38
2022-08-03T03:58:05.046Z,14.39
2022-08-03T04:00:40.318Z,14.39
2022-08-03T04:03:14.533Z,14.40
2022-08-03T04:06:04.946Z,14.41
2022-08-03T04:08:57.566Z,14.44
2022-08-03T04:11:35.906Z,14.47
2022-08-03T04:14:12.278Z,14.52
2022-08-03T04:16:50.425Z,14.58
2022-08-03T04:19:28.248Z,14.61
2022-08-03T04:22:06.847Z,14.66
2022-08-03T04:24:49.673Z,14.72
2022-08-03T04:27:26.904Z,14.77
2022-08-03T04:30:00.954Z,14.83
2022-08-03T04:32:33.933Z,14.92
2022-08-03T04:35:07.955Z,15.01
2022-08-03T04:37:43.499Z,15.13
2022-08-03T04:40:23.648Z,15.25
2022-08-03T04:43:04.105Z,15.38
2022-08-03T04:45:37.080Z,15.51
2022-08-03T04:48:10.882Z,15.64
2022-08-03T04:50:48.328Z,15.78
2022-08-03T04:53:29.903Z,15.92
2022-08-03T04:56:10.816Z,16.05
2022-08-03T04:58:43.880Z,16.17
2022-08-03T05:01:17.654Z,16.25
2022-08-03T05:03:50.063Z,16.32
2022-08-03T05:06:22.235Z,16.43
2022-08-03T05:08:57.762Z,16.55
2022-08-03T05:11:30.376Z,16.68
2022-08-03T05:14:02.725Z,16.81
2022-08-03T05:16:40.355Z,16.98
2022-08-03T05:19:12.738Z,17.14
2022-08-03T05:21:52.386Z,17.30
2022-08-03T05:24:25.307Z,17.46
2022-08-03T05:26:57.509Z,17.62
2022-08-03T05:29:30.318Z,17.78
2022-08-03T05:32:08.039Z,17.94
2022-08-03T05:34:41.210Z,18.13
2022-08-03T05:37:14.189Z,18.30
2022-08-03T05:39:47.225Z,18.47
2022-08-03T05:42:19.703Z,18.63
2022-08-03T05:44:52.044Z,18.74
2022-08-03T05:47:24.652Z,18.83
2022-08-03T05:49:59.033Z,18.95
2022-08-03T05:52:31.322Z,19.05
2022-08-03T05:55:03.802Z,19.13
2022-08-03T05:57:36.466Z,19.22
2022-08-03T06:00:12.245Z,19.27
2022-08-03T06:02:47.341Z,19.24
2022-08-03T06:05:19.620Z,19.15
2022-08-03T06:07:53.568Z,19.08
2022-08-03T06:10:37.165Z,19.04
2022-08-03T06:13:13.069Z,19.06
2022-08-03T06:15:46.198Z,19.17
2022-08-03T06:18:19.264Z,19.30
2022-08-03T06:20:55.143Z,19.40
2022-08-03T06:23:54.276Z,19.45
2022-08-03T06:26:19.534Z,19.53
2022-08-03T06:28:53.944Z,19.68
2022-08-03T06:31:33.210Z,19.83
2022-08-03T06:34:33.404Z,20.00
2022-08-03T06:37:02.300Z,20.21
2022-08-03T06:39:35.045Z,20.41
2022-08-03T06:42:08.226Z,20.57
2022-08-03T06:44:42.140Z,20.74
2022-08-03T06:47:14.359Z,20.93
2022-08-03T06:50:12.747Z,21.12
2022-08-03T06:52:39.817Z,21.26
2022-08-03T06:55:12.940Z,21.34
2022-08-03T06:57:45.681Z,21.47
2022-08-03T07:00:19.763Z,21.63
2022-08-03T07:02:57.678Z,21.78
2022-08-03T07:05:34.040Z,21.91
2022-08-03T07:08:07.142Z,22.01
2022-08-03T07:10:39.522Z,22.13
2022-08-03T07:13:13.629Z,22.29
2022-08-03T07:15:55.782Z,22.38
2022-08-03T07:18:29.450Z,22.48
2022-08-03T07:21:02.478Z,22.59
2022-08-03T07:23:34.733Z,22.74
2022-08-03T07:26:06.986Z,22.89
2022-08-03T07:28:39.216Z,23.04
2022-08-03T07:31:11.626Z,23.14
2022-08-03T07:33:43.797Z,23.27
2022-08-03T07:36:16.077Z,23.44
2022-08-03T07:38:48.445Z,23.60
2022-08-03T07:41:20.678Z,23.73
2022-08-03T07:43:56.075Z,23.83
2022-08-03T07:46:29.611Z,23.94
2022-08-03T07:49:04.687Z,24.05
2022-08-03T07:51:37.776Z,24.10
2022-08-03T07:54:10.448Z,24.18
2022-08-03T07:56:43.025Z,24.29
2022-08-03T07:59:15.354Z,24.45
2022-08-03T08:01:47.744Z,24.58
2022-08-03T08:04:19.995Z,24.63
2022-08-03T08:06:52.281Z,24.71
2022-08-03T08:09:24.947Z,24.67
2022-08-03T08:11:57.735Z,24.55
2022-08-03T08:14:30.104Z,24.52
2022-08-03T08:17:07.019Z,24.59
2022-08-03T08:19:41.467Z,24.66
2022-08-03T08:22:30.117Z,24.70
2022-08-03T08:25:03.851Z,24.88
2022-08-03T08:28:22.474Z,25.08
2022-08-03T08:30:35.083Z,25.30
2022-08-03T08:33:08.702Z,25.40
2022-08-03T08:35:57.548Z,25.51
2022-08-03T08:38:29.868Z,25.59
2022-08-03T08:41:02.371Z,25.55
2022-08-03T08:43:34.611Z,25.58
2022-08-03T08:46:08.733Z,25.67
2022-08-03T08:48:43.803Z,25.77
2022-08-03T08:51:17.548Z,25.95
2022-08-03T08:53:53.841Z,26.05
2022-08-03T08:56:28.835Z,26.15
2022-08-03T08:59:03.067Z,26.24
2022-08-03T09:01:35.970Z,26.30
2022-08-03T09:04:10.677Z,26.39
2022-08-03T09:07:04.432Z,26.45
2022-08-03T09:10:11.709Z,26.51
2022-08-03T09:12:41.881Z,26.58
2022-08-03T09:15:26.436Z,26.62
2022-08-03T09:18:00.336Z,26.69
2022-08-03T09:20:37.195Z,26.69
2022-08-03T09:23:58.989Z,26.77
2022-08-03T09:26:06.474Z,26.90
2022-08-03T09:29:00.703Z,26.97
2022-08-03T09:31:38.984Z,27.07
2022-08-03T09:34:18.462Z,27.21
2022-08-03T09:36:56.378Z,27.29
2022-08-03T09:39:41.962Z,27.37
2022-08-03T09:42:17.351Z,27.47
2022-08-03T09:44:52.253Z,27.58
2022-08-03T09:47:32.813Z,27.73
2022-08-03T09:50:08.577Z,27.80
2022-08-03T09:52:50.199Z,27.75
2022-08-03T09:56:34.857Z,27.74
2022-08-03T09:58:21.571Z,27.75
2022-08-03T10:00:58.071Z,27.74
2022-08-03T10:03:31.761Z,27.76
2022-08-03T10:06:19.728Z,27.86
2022-08-03T10:09:08.219Z,27.86
2022-08-03T10:11:42.248Z,27.79
2022-08-03T10:14:19.340Z,27.77
2022-08-03T10:16:52.472Z,27.83
2022-08-03T10:19:25.660Z,27.85
2022-08-03T10:22:02.429Z,27.83
2022-08-03T10:24:38.539Z,27.79
2022-08-03T10:27:12.677Z,27.73
2022-08-03T10:29:56.134Z,27.63
2022-08-03T10:32:32.728Z,27.60
2022-08-03T10:35:12.349Z,27.58
2022-08-03T10:37:59.214Z,27.51
2022-08-03T10:40:48.563Z,27.46
2022-08-03T10:43:27.395Z,27.47
2022-08-03T10:46:00.690Z,27.56
2022-08-03T10:48:35.602Z,27.67
2022-08-03T10:51:08.375Z,27.69
2022-08-03T10:53:54.170Z,27.85
2022-08-03T10:57:06.330Z,27.95
2022-08-03T11:00:04.851Z,28.06
2022-08-03T11:03:08.827Z,28.11
2022-08-03T11:05:43.403Z,28.15
2022-08-03T11:08:32.748Z,28.18
2022-08-03T11:11:28.513Z,28.19
2022-08-03T11:14:13.682Z,28.17
2022-08-03T11:16:48.455Z,28.11
2022-08-03T11:19:27.596Z,28.03
2022-08-03T11:22:01.068Z,27.97
2022-08-03T11:24:59.780Z,27.92
2022-08-03T11:27:35.248Z,27.87
2022-08-03T11:30:10.371Z,27.85
2022-08-03T11:33:13.485Z,27.84
2022-08-03T11:36:02.047Z,27.84
2022-08-03T11:38:35.473Z,27.86
2022-08-03T11:41:27.692Z,27.87
2022-08-03T11:43:59.965Z,27.83
2022-08-03T11:46:39.787Z,27.84
2022-08-03T11:49:13.036Z,27.88
2022-08-03T11:51:45.781Z,27.89
2022-08-03T11:54:22.829Z,27.81
2022-08-03T11:56:55.076Z,27.78
2022-08-03T11:59:38.765Z,27.79
2022-08-03T12:02:12.106Z,27.71
2022-08-03T12:04:54.587Z,27.65
2022-08-03T12:08:03.310Z,27.66
2022-08-03T12:10:21.274Z,27.76
2022-08-03T12:13:01.464Z,27.84
2022-08-03T12:15:35.381Z,27.93
2022-08-03T12:18:16.809Z,27.98
2022-08-03T12:20:50.374Z,28.02
2022-08-03T12:23:22.824Z,28.06
2022-08-03T12:26:02.404Z,28.12
2022-08-03T12:28:37.898Z,28.19
2022-08-03T12:31:11.184Z,28.25
2022-08-03T12:34:01.917Z,28.29
2022-08-03T12:36:36.589Z,28.33
2022-08-03T12:39:12.046Z,28.42
2022-08-03T12:41:45.022Z,28.46
2022-08-03T12:44:17.435Z,28.51
2022-08-03T12:46:58.594Z,28.56
2022-08-03T12:49:45.754Z,28.44
2022-08-03T12:52:23.058Z,28.38
2022-08-03T12:55:00.197Z,28.39
2022-08-03T12:57:45.909Z,28.41
2022-08-03T13:00:29.219Z,28.37
2022-08-03T13:06:00.058Z,28.23
2022-08-03T13:08:32.575Z,28.16
2022-08-03T13:11:21.435Z,28.06
2022-08-03T13:13:54.626Z,28.00
2022-08-03T13:16:27.400Z,27.93
2022-08-03T13:18:59.572Z,28.02
2022-08-03T13:21:33.138Z,28.18
2022-08-03T13:24:07.635Z,28.28
2022-08-03T13:26:40.623Z,28.34
2022-08-03T13:29:12.796Z,28.43
2022-08-03T13:31:51.177Z,28.56
2022-08-03T13:34:24.181Z,28.64
2022-08-03T13:37:08.995Z,28.68
2022-08-03T13:39:57.646Z,28.76
2022-08-03T13:42:34.603Z,28.87
2022-08-03T13:45:09.268Z,29.00
2022-08-03T13:47:41.465Z,29.03
2022-08-03T13:50:13.685Z,29.08
2022-08-03T13:52:46.905Z,29.07
2022-08-03T13:55:19.298Z,29.02
2022-08-03T13:58:03.733Z,29.07
2022-08-03T14:00:43.810Z,29.04
2022-08-03T14:03:15.971Z,29.04
2022-08-03T14:05:48.312Z,29.07
2022-08-03T14:08:20.529Z,29.10
2022-08-03T14:10:53.028Z,29.13
2022-08-03T14:13:25.245Z,29.18
2022-08-03T14:15:58.381Z,29.27
2022-08-03T14:18:33.516Z,29.29
2022-08-03T14:21:07.482Z,29.30
2022-08-03T14:23:40.179Z,29.42
2022-08-03T14:26:14.627Z,29.44
2022-08-03T14:28:46.849Z,29.46
2022-08-03T14:32:09.686Z,29.50
2022-08-03T14:34:11.311Z,29.53
2022-08-03T14:36:47.322Z,29.49
2022-08-03T14:39:19.822Z,29.49
2022-08-03T14:41:52.448Z,29.54
2022-08-03T14:44:24.512Z,29.49
2022-08-03T14:46:59.332Z,29.41
2022-08-03T14:50:38.500Z,29.36
2022-08-03T14:52:24.280Z,29.34
2022-08-03T14:54:56.592Z,29.41
2022-08-03T14:57:28.977Z,29.44
2022-08-03T15:00:02.486Z,29.47
2022-08-03T15:02:34.741Z,29.45
2022-08-03T15:05:08.064Z,29.41
2022-08-03T15:07:40.330Z,29.38
2022-08-03T15:10:15.121Z,29.37
2022-08-03T15:12:47.654Z,29.36
2022-08-03T15:15:19.731Z,29.31
2022-08-03T15:17:59.728Z,29.26
2022-08-03T15:20:43.735Z,29.20
2022-08-03T15:23:18.206Z,29.18
2022-08-03T15:26:02.301Z,29.13
2022-08-03T15:28:43.024Z,29.11
2022-08-03T15:31:19.014Z,29.03
2022-08-03T15:33:51.824Z,29.00
2022-08-03T15:36:24.802Z,28.91
2022-08-03T15:38:57.034Z,28.87
2022-08-03T15:41:29.585Z,28.86
2022-08-03T15:44:05.196Z,28.83
2022-08-03T15:46:41.115Z,28.81
2022-08-03T15:49:13.234Z,28.79
2022-08-03T15:51:45.375Z,28.75
2022-08-03T15:54:17.511Z,28.72
2022-08-03T15:56:49.942Z,28.65
2022-08-03T15:59:22.838Z,28.61
2022-08-03T16:01:57.395Z,28.58
2022-08-03T16:04:29.609Z,28.55
2022-08-03T16:07:01.935Z,28.51
2022-08-03T16:09:42.113Z,28.49
2022-08-03T16:12:16.865Z,28.44
2022-08-03T16:14:53.468Z,28.44
2022-08-03T16:17:26.568Z,28.36
2022-08-03T16:20:07.433Z,28.31
2022-08-03T16:22:47.954Z,28.26
2022-08-03T16:25:21.057Z,28.19
2022-08-03T16:28:00.317Z,28.13
2022-08-03T16:30:43.518Z,28.03
2022-08-03T16:33:17.848Z,27.96
2022-08-03T16:35:53.022Z,27.88
2022-08-03T16:38:25.644Z,27.83
2022-08-03T16:41:02.403Z,27.74
2022-08-03T16:43:41.749Z,27.62
2022-08-03T16:46:15.249Z,27.56
2022-08-03T16:48:47.618Z,27.50
2022-08-03T16:51:20.890Z,27.44
2022-08-03T16:54:07.917Z,27.38
2022-08-03T16:56:44.708Z,27.29
2022-08-03T16:59:17.398Z,27.22
2022-08-03T17:01:51.032Z,27.14
2022-08-03T17:04:23.470Z,27.02
2022-08-03T17:06:56.591Z,26.97
2022-08-03T17:09:38.173Z,26.92
2022-08-03T17:12:11.781Z,26.83
2022-08-03T17:14:44.157Z,26.71
2022-08-03T17:17:22.473Z,26.60
2022-08-03T17:19:55.577Z,26.51
2022-08-03T17:22:33.352Z,26.41
2022-08-03T17:25:09.202Z,26.30
2022-08-03T17:28:51.102Z,26.20
2022-08-03T17:31:23.151Z,26.11
2022-08-03T17:33:58.287Z,25.97
2022-08-03T17:37:02.027Z,25.90
2022-08-03T17:39:48.427Z,25.78
2022-08-03T17:42:39.138Z,25.64
2022-08-03T17:45:15.486Z,25.52
2022-08-03T17:47:57.486Z,25.43
2022-08-03T17:50:42.578Z,25.34
2022-08-03T17:53:23.988Z,25.25
2022-08-03T17:56:44.464Z,25.13
2022-08-03T17:59:13.205Z,25.01
2022-08-03T18:02:15.259Z,24.88
2022-08-03T18:05:16.535Z,24.75
2022-08-03T18:08:00.775Z,24.63
2022-08-03T18:10:49.762Z,24.50
2022-08-03T18:13:30.484Z,24.37
2022-08-03T18:16:04.517Z,24.26
2022-08-03T18:18:43.170Z,24.12
2022-08-03T18:21:17.706Z,24.00
2022-08-03T18:23:52.336Z,23.92
2022-08-03T18:26:25.991Z,23.84
2022-08-03T18:28:58.800Z,23.74
2022-08-03T18:32:03.607Z,23.66
2022-08-03T18:34:32.904Z,23.54
2022-08-03T18:37:08.172Z,23.42
2022-08-03T18:42:35.664Z,23.21
2022-08-03T18:45:14.627Z,23.12
2022-08-03T18:48:10.074Z,23.02
2022-08-03T18:50:49.694Z,22.93
2022-08-03T18:54:02.293Z,22.85
2022-08-03T18:56:33.181Z,22.73
2022-08-03T18:59:16.609Z,22.64
2022-08-03T19:02:09.152Z,22.57
2022-08-03T19:05:00.581Z,22.49
2022-08-03T19:07:36.131Z,22.40
2022-08-03T19:10:10.884Z,22.29
2022-08-03T19:12:51.599Z,22.19
2022-08-03T19:15:36.104Z,22.12
2022-08-03T19:18:12.431Z,22.05
2022-08-03T19:20:54.794Z,21.98
2022-08-03T19:23:30.896Z,21.89
2022-08-03T19:26:30.671Z,21.82
2022-08-03T19:29:02.089Z,21.75
2022-08-03T19:31:38.110Z,21.68
2022-08-03T19:34:13.559Z,21.61
2022-08-03T19:36:52.361Z,21.55
2022-08-03T19:39:28.032Z,21.47
2022-08-03T19:42:20.469Z,21.39
2022-08-03T19:45:10.936Z,21.32
2022-08-03T19:47:52.626Z,21.26
2022-08-03T19:50:25.108Z,21.17
2022-08-03T19:53:00.658Z,21.09
2022-08-03T19:55:34.154Z,21.03
2022-08-03T19:58:08.623Z,20.97
2022-08-03T20:00:51.428Z,20.91
2022-08-03T20:03:27.659Z,20.81
2022-08-03T20:06:22.264Z,20.73
2022-08-03T20:08:55.041Z,20.67
2022-08-03T20:11:31.105Z,20.60
2022-08-03T20:14:26.207Z,20.56
2022-08-03T20:16:59.365Z,20.49
2022-08-03T20:19:35.155Z,20.46
2022-08-03T20:22:14.372Z,20.43
2022-08-03T20:24:52.735Z,20.38
2022-08-03T20:27:30.084Z,20.36
2022-08-03T20:30:07.233Z,20.30
2022-08-03T20:32:41.560Z,20.25
2022-08-03T20:35:15.717Z,20.20
2022-08-03T20:37:47.982Z,20.19
2022-08-03T20:40:20.401Z,20.18
2022-08-03T20:42:55.481Z,20.14
2022-08-03T20:45:59.125Z,20.10
2022-08-03T20:48:22.167Z,20.07
2022-08-03T20:50:56.415Z,20.04
2022-08-03T20:53:56.787Z,19.99
2022-08-03T20:56:22.761Z,19.95
2022-08-03T20:59:05.482Z,19.92
2022-08-03T21:01:39.499Z,19.85
2022-08-03T21:07:09.790Z,19.79
2022-08-03T21:09:55.399Z,19.76
2022-08-03T21:12:37.293Z,19.70
2022-08-03T21:12:58.867Z,23.32
2022-08-03T21:13:07.969Z,19.82
2022-08-03T21:16:06.615Z,19.63
2022-08-03T21:18:15.200Z,19.58
2022-08-03T21:20:50.308Z,19.56
2022-08-03T21:23:39.914Z,19.53
2022-08-03T21:26:17.289Z,19.49
2022-08-03T21:28:57.883Z,19.45
2022-08-03T21:31:33.676Z,19.43
2022-08-03T21:34:07.984Z,19.41
2022-08-03T21:36:40.255Z,19.37
2022-08-03T21:39:13.332Z,19.34
2022-08-03T21:41:45.585Z,19.29
2022-08-03T21:44:25.130Z,19.21
2022-08-03T21:47:03.391Z,19.13
2022-08-03T21:50:05.077Z,19.14
2022-08-03T21:52:33.589Z,19.14
2022-08-03T21:55:08.379Z,19.09
2022-08-03T21:57:54.470Z,19.09
2022-08-03T22:00:26.958Z,19.07
2022-08-03T22:03:17.447Z,19.04
2022-08-03T22:05:50.804Z,19.02
2022-08-03T22:08:23.495Z,19.00
2022-08-03T22:10:55.652Z,18.99
2022-08-03T22:13:43.337Z,18.95
2022-08-03T22:16:18.074Z,18.90
2022-08-03T22:18:50.581Z,18.85
2022-08-03T22:21:35.799Z,18.81
2022-08-03T22:24:09.906Z,18.76
2022-08-03T22:27:05.913Z,18.75
2022-08-03T22:29:41.086Z,18.71
2022-08-03T22:32:13.355Z,18.68
2022-08-03T22:34:49.472Z,18.67
2022-08-03T22:37:26.113Z,18.67
2022-08-03T22:39:59.975Z,18.66
2022-08-03T22:42:35.077Z,18.64
2022-08-03T22:45:10.373Z,18.61
2022-08-03T22:48:03.053Z,18.57
2022-08-03T22:50:36.494Z,18.53
2022-08-03T22:53:09.476Z,18.50
2022-08-03T22:55:43.043Z,18.48
2022-08-03T22:58:17.126Z,18.46
2022-08-03T23:00:55.627Z,18.43
2022-08-03T23:04:01.092Z,18.41
2022-08-03T23:06:27.767Z,18.36
2022-08-03T23:09:03.769Z,18.33
2022-08-03T23:11:45.189Z,18.29
2022-08-03T23:14:21.772Z,18.26
2022-08-03T23:16:57.988Z,18.22
2022-08-03T23:19:30.801Z,18.16
2022-08-03T23:22:07.116Z,18.12
2022-08-03T23:25:03.760Z,18.08
2022-08-03T23:27:38.561Z,18.04
2022-08-03T23:30:13.319Z,18.01
2022-08-03T23:32:46.953Z,17.98
2022-08-03T23:36:22.701Z,17.95
2022-08-03T23:38:40.069Z,17.92
2022-08-03T23:41:13.596Z,17.87
2022-08-03T23:43:53.710Z,17.83
2022-08-03T23:46:30.312Z,17.79
2022-08-03T23:49:03.530Z,17.76
2022-08-03T23:51:48.957Z,17.74
2022-08-03T23:54:33.649Z,17.74
2022-08-03T23:57:14.359Z,17.71
2022-08-03T23:59:57.888Z,17.68
